sensor_id;sensor_type;location;lat;lon;timestamp;P1;durP1;ratioP1;P2;durP2;ratioP2
16262;SDS011;8239;48.594;8.598;2023-07-31T00:01:13;3.07;;;1.90;;
16262;SDS011;8239;48.594;8.598;2023-07-31T00:03:40;3.50;;;2.17;;
16262;SDS011;8239;48.594;8.598;2023-07-31T00:06:07;3.60;;;2.37;;
16262;SDS011;8239;48.594;8.598;2023-07-31T00:08:33;3.97;;;2.20;;
16262;SDS011;8239;48.594;8.598;2023-07-31T00:11:00;5.67;;;2.40;;
16262;SDS011;8239;48.594;8.598;2023-07-31T00:13:27;4.07;;;2.40;;
16262;SDS011;8239;48.594;8.598;2023-07-31T00:15:54;3.30;;;2.50;;
16262;SDS011;8239;48.594;8.598;2023-07-31T00:18:22;3.60;;;2.30;;
16262;SDS011;8239;48.594;8.598;2023-07-31T00:20:49;5.87;;;2.63;;
16262;SDS011;8239;48.594;8.598;2023-07-31T00:23:16;5.00;;;2.53;;
16262;SDS011;8239;48.594;8.598;2023-07-31T00:25:43;4.97;;;2.20;;
16262;SDS011;8239;48.594;8.598;2023-07-31T00:28:11;4.80;;;2.67;;
16262;SDS011;8239;48.594;8.598;2023-07-31T00:30:38;4.63;;;2.50;;
16262;SDS011;8239;48.594;8.598;2023-07-31T00:33:05;5.70;;;2.67;;
16262;SDS011;8239;48.594;8.598;2023-07-31T00:35:33;5.80;;;2.83;;
16262;SDS011;8239;48.594;8.598;2023-07-31T00:38:01;3.90;;;2.53;;
16262;SDS011;8239;48.594;8.598;2023-07-31T00:40:28;3.93;;;2.80;;
16262;SDS011;8239;48.594;8.598;2023-07-31T00:42:55;6.10;;;2.87;;
16262;SDS011;8239;48.594;8.598;2023-07-31T00:45:21;5.30;;;2.77;;
16262;SDS011;8239;48.594;8.598;2023-07-31T00:47:52;6.70;;;3.37;;
16262;SDS011;8239;48.594;8.598;2023-07-31T00:50:19;4.23;;;2.80;;
16262;SDS011;8239;48.594;8.598;2023-07-31T00:52:47;4.10;;;3.10;;
16262;SDS011;8239;48.594;8.598;2023-07-31T00:55:14;4.63;;;2.67;;
16262;SDS011;8239;48.594;8.598;2023-07-31T00:57:41;3.80;;;2.90;;
16262;SDS011;8239;48.594;8.598;2023-07-31T01:00:09;6.40;;;2.83;;
16262;SDS011;8239;48.594;8.598;2023-07-31T01:02:36;5.60;;;3.23;;
16262;SDS011;8239;48.594;8.598;2023-07-31T01:05:04;3.17;;;2.60;;
16262;SDS011;8239;48.594;8.598;2023-07-31T01:07:39;5.17;;;3.20;;
16262;SDS011;8239;48.594;8.598;2023-07-31T01:10:15;6.10;;;2.87;;
16262;SDS011;8239;48.594;8.598;2023-07-31T01:12:46;5.37;;;3.10;;
16262;SDS011;8239;48.594;8.598;2023-07-31T01:15:14;5.10;;;2.80;;
16262;SDS011;8239;48.594;8.598;2023-07-31T01:17:42;6.57;;;2.97;;
16262;SDS011;8239;48.594;8.598;2023-07-31T01:20:10;3.80;;;2.83;;
16262;SDS011;8239;48.594;8.598;2023-07-31T01:22:49;4.87;;;2.93;;
16262;SDS011;8239;48.594;8.598;2023-07-31T01:28:31;4.40;;;2.90;;
16262;SDS011;8239;48.594;8.598;2023-07-31T01:31:06;5.73;;;2.87;;
16262;SDS011;8239;48.594;8.598;2023-07-31T01:33:36;7.23;;;3.23;;
16262;SDS011;8239;48.594;8.598;2023-07-31T01:36:04;3.93;;;2.67;;
16262;SDS011;8239;48.594;8.598;2023-07-31T01:38:31;5.70;;;3.13;;
16262;SDS011;8239;48.594;8.598;2023-07-31T01:40:58;6.33;;;3.20;;
16262;SDS011;8239;48.594;8.598;2023-07-31T01:43:27;3.77;;;2.80;;
16262;SDS011;8239;48.594;8.598;2023-07-31T01:45:54;3.37;;;2.90;;
16262;SDS011;8239;48.594;8.598;2023-07-31T01:48:20;5.70;;;3.33;;
16262;SDS011;8239;48.594;8.598;2023-07-31T01:50:47;6.57;;;3.33;;
16262;SDS011;8239;48.594;8.598;2023-07-31T01:53:14;6.73;;;3.40;;
16262;SDS011;8239;48.594;8.598;2023-07-31T01:55:41;3.30;;;2.83;;
16262;SDS011;8239;48.594;8.598;2023-07-31T01:58:10;3.63;;;2.80;;
16262;SDS011;8239;48.594;8.598;2023-07-31T02:00:37;6.07;;;3.07;;
16262;SDS011;8239;48.594;8.598;2023-07-31T02:03:04;5.73;;;2.83;;
16262;SDS011;8239;48.594;8.598;2023-07-31T02:05:31;5.83;;;3.20;;
16262;SDS011;8239;48.594;8.598;2023-07-31T02:07:57;3.60;;;2.90;;
16262;SDS011;8239;48.594;8.598;2023-07-31T02:10:24;5.73;;;3.10;;
16262;SDS011;8239;48.594;8.598;2023-07-31T02:12:51;5.27;;;2.80;;
16262;SDS011;8239;48.594;8.598;2023-07-31T02:15:20;3.03;;;2.70;;
16262;SDS011;8239;48.594;8.598;2023-07-31T02:17:46;3.70;;;3.10;;
16262;SDS011;8239;48.594;8.598;2023-07-31T02:20:13;4.67;;;2.83;;
16262;SDS011;8239;48.594;8.598;2023-07-31T02:22:41;5.10;;;2.90;;
16262;SDS011;8239;48.594;8.598;2023-07-31T02:25:08;5.77;;;3.57;;
16262;SDS011;8239;48.594;8.598;2023-07-31T02:27:35;7.20;;;3.43;;
16262;SDS011;8239;48.594;8.598;2023-07-31T02:30:02;4.47;;;3.20;;
16262;SDS011;8239;48.594;8.598;2023-07-31T02:32:30;6.00;;;3.40;;
16262;SDS011;8239;48.594;8.598;2023-07-31T02:34:57;5.80;;;3.10;;
16262;SDS011;8239;48.594;8.598;2023-07-31T02:37:24;5.10;;;3.33;;
16262;SDS011;8239;48.594;8.598;2023-07-31T02:39:53;4.70;;;3.47;;
16262;SDS011;8239;48.594;8.598;2023-07-31T02:42:20;4.63;;;3.37;;
16262;SDS011;8239;48.594;8.598;2023-07-31T02:44:47;6.10;;;3.70;;
16262;SDS011;8239;48.594;8.598;2023-07-31T02:47:16;5.80;;;3.80;;
16262;SDS011;8239;48.594;8.598;2023-07-31T02:49:44;6.70;;;3.60;;
16262;SDS011;8239;48.594;8.598;2023-07-31T02:52:11;4.53;;;3.80;;
16262;SDS011;8239;48.594;8.598;2023-07-31T02:54:38;6.53;;;3.57;;
16262;SDS011;8239;48.594;8.598;2023-07-31T02:57:05;5.57;;;3.47;;
16262;SDS011;8239;48.594;8.598;2023-07-31T02:59:32;5.43;;;3.80;;
16262;SDS011;8239;48.594;8.598;2023-07-31T03:01:59;6.10;;;3.60;;
16262;SDS011;8239;48.594;8.598;2023-07-31T03:04:26;5.03;;;3.77;;
16262;SDS011;8239;48.594;8.598;2023-07-31T03:06:54;5.83;;;3.83;;
16262;SDS011;8239;48.594;8.598;2023-07-31T03:09:21;5.70;;;3.40;;
16262;SDS011;8239;48.594;8.598;2023-07-31T03:11:48;5.60;;;3.40;;
16262;SDS011;8239;48.594;8.598;2023-07-31T03:14:15;5.07;;;3.30;;
16262;SDS011;8239;48.594;8.598;2023-07-31T03:16:42;4.83;;;3.33;;
16262;SDS011;8239;48.594;8.598;2023-07-31T03:19:09;6.07;;;3.37;;
16262;SDS011;8239;48.594;8.598;2023-07-31T03:21:35;5.70;;;3.20;;
16262;SDS011;8239;48.594;8.598;2023-07-31T03:24:04;5.33;;;2.83;;
16262;SDS011;8239;48.594;8.598;2023-07-31T03:26:31;5.23;;;3.30;;
16262;SDS011;8239;48.594;8.598;2023-07-31T03:28:58;8.57;;;3.53;;
16262;SDS011;8239;48.594;8.598;2023-07-31T03:31:25;6.37;;;3.03;;
16262;SDS011;8239;48.594;8.598;2023-07-31T03:33:52;5.37;;;2.87;;
16262;SDS011;8239;48.594;8.598;2023-07-31T03:36:18;3.00;;;2.77;;
16262;SDS011;8239;48.594;8.598;2023-07-31T03:38:45;3.37;;;3.07;;
16262;SDS011;8239;48.594;8.598;2023-07-31T03:41:14;5.70;;;3.00;;
16262;SDS011;8239;48.594;8.598;2023-07-31T03:43:41;4.87;;;3.07;;
16262;SDS011;8239;48.594;8.598;2023-07-31T03:46:08;3.80;;;2.70;;
16262;SDS011;8239;48.594;8.598;2023-07-31T03:48:35;5.67;;;2.77;;
16262;SDS011;8239;48.594;8.598;2023-07-31T03:51:01;5.60;;;2.60;;
16262;SDS011;8239;48.594;8.598;2023-07-31T03:53:28;3.33;;;2.60;;
16262;SDS011;8239;48.594;8.598;2023-07-31T03:55:55;4.50;;;2.43;;
16262;SDS011;8239;48.594;8.598;2023-07-31T03:58:24;3.97;;;2.80;;
16262;SDS011;8239;48.594;8.598;2023-07-31T04:00:51;5.40;;;2.73;;
16262;SDS011;8239;48.594;8.598;2023-07-31T04:03:17;3.00;;;2.70;;
16262;SDS011;8239;48.594;8.598;2023-07-31T04:05:44;5.97;;;2.60;;
16262;SDS011;8239;48.594;8.598;2023-07-31T04:08:11;4.70;;;2.53;;
16262;SDS011;8239;48.594;8.598;2023-07-31T04:10:38;4.43;;;2.50;;
16262;SDS011;8239;48.594;8.598;2023-07-31T04:13:05;6.73;;;3.00;;
16262;SDS011;8239;48.594;8.598;2023-07-31T04:15:33;4.47;;;2.40;;
16262;SDS011;8239;48.594;8.598;2023-07-31T04:18:00;2.83;;;2.50;;
16262;SDS011;8239;48.594;8.598;2023-07-31T04:20:27;5.10;;;2.93;;
16262;SDS011;8239;48.594;8.598;2023-07-31T04:22:54;5.57;;;2.63;;
16262;SDS011;8239;48.594;8.598;2023-07-31T04:25:21;3.33;;;2.70;;
16262;SDS011;8239;48.594;8.598;2023-07-31T04:27:48;4.33;;;2.43;;
16262;SDS011;8239;48.594;8.598;2023-07-31T04:30:15;4.13;;;2.57;;
16262;SDS011;8239;48.594;8.598;2023-07-31T04:32:43;5.43;;;2.78;;
16262;SDS011;8239;48.594;8.598;2023-07-31T04:35:10;5.33;;;2.80;;
16262;SDS011;8239;48.594;8.598;2023-07-31T04:37:38;3.30;;;2.60;;
16262;SDS011;8239;48.594;8.598;2023-07-31T04:40:05;2.60;;;2.40;;
16262;SDS011;8239;48.594;8.598;2023-07-31T04:42:33;2.57;;;2.30;;
16262;SDS011;8239;48.594;8.598;2023-07-31T04:45:00;5.40;;;2.57;;
16262;SDS011;8239;48.594;8.598;2023-07-31T04:47:27;4.17;;;2.37;;
16262;SDS011;8239;48.594;8.598;2023-07-31T04:49:55;3.03;;;2.20;;
16262;SDS011;8239;48.594;8.598;2023-07-31T04:52:22;4.33;;;2.30;;
16262;SDS011;8239;48.594;8.598;2023-07-31T04:54:49;5.60;;;2.30;;
16262;SDS011;8239;48.594;8.598;2023-07-31T04:57:16;4.57;;;2.70;;
16262;SDS011;8239;48.594;8.598;2023-07-31T04:59:43;2.43;;;2.23;;
16262;SDS011;8239;48.594;8.598;2023-07-31T05:02:11;2.40;;;2.20;;
16262;SDS011;8239;48.594;8.598;2023-07-31T05:04:39;4.87;;;2.57;;
16262;SDS011;8239;48.594;8.598;2023-07-31T05:07:07;3.67;;;2.60;;
16262;SDS011;8239;48.594;8.598;2023-07-31T05:09:34;4.60;;;2.50;;
16262;SDS011;8239;48.594;8.598;2023-07-31T05:12:01;5.47;;;2.57;;
16262;SDS011;8239;48.594;8.598;2023-07-31T05:14:30;5.43;;;2.73;;
16262;SDS011;8239;48.594;8.598;2023-07-31T05:16:57;4.43;;;2.67;;
16262;SDS011;8239;48.594;8.598;2023-07-31T05:19:24;3.80;;;2.47;;
16262;SDS011;8239;48.594;8.598;2023-07-31T05:21:51;3.07;;;2.33;;
16262;SDS011;8239;48.594;8.598;2023-07-31T05:24:19;2.73;;;2.30;;
16262;SDS011;8239;48.594;8.598;2023-07-31T05:26:46;3.80;;;2.50;;
16262;SDS011;8239;48.594;8.598;2023-07-31T05:29:13;2.53;;;2.10;;
16262;SDS011;8239;48.594;8.598;2023-07-31T05:31:40;4.20;;;2.17;;
16262;SDS011;8239;48.594;8.598;2023-07-31T05:34:07;2.40;;;2.10;;
16262;SDS011;8239;48.594;8.598;2023-07-31T05:36:34;3.47;;;1.93;;
16262;SDS011;8239;48.594;8.598;2023-07-31T05:39:01;3.33;;;2.20;;
16262;SDS011;8239;48.594;8.598;2023-07-31T05:41:32;3.17;;;2.07;;
16262;SDS011;8239;48.594;8.598;2023-07-31T05:43:59;4.40;;;2.40;;
16262;SDS011;8239;48.594;8.598;2023-07-31T05:46:27;3.50;;;2.30;;
16262;SDS011;8239;48.594;8.598;2023-07-31T05:48:54;3.30;;;2.30;;
16262;SDS011;8239;48.594;8.598;2023-07-31T05:51:21;3.80;;;2.20;;
16262;SDS011;8239;48.594;8.598;2023-07-31T05:53:48;5.07;;;2.10;;
16262;SDS011;8239;48.594;8.598;2023-07-31T05:56:15;3.03;;;2.13;;
16262;SDS011;8239;48.594;8.598;2023-07-31T05:58:43;3.27;;;2.17;;
16262;SDS011;8239;48.594;8.598;2023-07-31T06:01:10;3.20;;;2.10;;
16262;SDS011;8239;48.594;8.598;2023-07-31T06:03:37;4.15;;;2.15;;
16262;SDS011;8239;48.594;8.598;2023-07-31T06:06:04;2.55;;;2.00;;
16262;SDS011;8239;48.594;8.598;2023-07-31T06:08:31;3.35;;;1.90;;
16262;SDS011;8239;48.594;8.598;2023-07-31T06:10:58;3.70;;;2.10;;
16262;SDS011;8239;48.594;8.598;2023-07-31T06:13:25;2.05;;;1.77;;
16262;SDS011;8239;48.594;8.598;2023-07-31T06:15:53;3.58;;;1.73;;
16262;SDS011;8239;48.594;8.598;2023-07-31T06:18:20;2.75;;;1.70;;
16262;SDS011;8239;48.594;8.598;2023-07-31T06:20:47;2.20;;;1.70;;
16262;SDS011;8239;48.594;8.598;2023-07-31T06:23:18;3.22;;;1.80;;
16262;SDS011;8239;48.594;8.598;2023-07-31T06:25:45;4.40;;;2.03;;
16262;SDS011;8239;48.594;8.598;2023-07-31T06:28:12;2.35;;;2.05;;
16262;SDS011;8239;48.594;8.598;2023-07-31T06:30:39;2.92;;;2.30;;
16262;SDS011;8239;48.594;8.598;2023-07-31T06:33:08;3.20;;;1.77;;
16262;SDS011;8239;48.594;8.598;2023-07-31T06:35:35;2.72;;;2.10;;
16262;SDS011;8239;48.594;8.598;2023-07-31T06:38:02;4.95;;;2.30;;
16262;SDS011;8239;48.594;8.598;2023-07-31T06:40:30;3.47;;;1.90;;
16262;SDS011;8239;48.594;8.598;2023-07-31T06:42:57;4.28;;;1.90;;
16262;SDS011;8239;48.594;8.598;2023-07-31T06:45:24;4.70;;;2.10;;
16262;SDS011;8239;48.594;8.598;2023-07-31T06:47:51;3.47;;;2.00;;
16262;SDS011;8239;48.594;8.598;2023-07-31T06:50:19;2.60;;;1.95;;
16262;SDS011;8239;48.594;8.598;2023-07-31T06:52:46;3.47;;;2.03;;
16262;SDS011;8239;48.594;8.598;2023-07-31T06:55:16;3.95;;;2.10;;
16262;SDS011;8239;48.594;8.598;2023-07-31T06:57:44;3.53;;;1.92;;
16262;SDS011;8239;48.594;8.598;2023-07-31T07:00:12;2.92;;;1.88;;
16262;SDS011;8239;48.594;8.598;2023-07-31T07:02:39;4.18;;;2.30;;
16262;SDS011;8239;48.594;8.598;2023-07-31T07:05:07;4.25;;;2.00;;
16262;SDS011;8239;48.594;8.598;2023-07-31T07:07:35;4.70;;;2.10;;
16262;SDS011;8239;48.594;8.598;2023-07-31T07:10:03;3.63;;;2.10;;
16262;SDS011;8239;48.594;8.598;2023-07-31T07:12:31;3.25;;;1.90;;
16262;SDS011;8239;48.594;8.598;2023-07-31T07:14:59;4.72;;;2.05;;
16262;SDS011;8239;48.594;8.598;2023-07-31T07:17:27;3.72;;;1.90;;
16262;SDS011;8239;48.594;8.598;2023-07-31T07:19:56;3.92;;;2.10;;
16262;SDS011;8239;48.594;8.598;2023-07-31T07:22:23;3.85;;;1.83;;
16262;SDS011;8239;48.594;8.598;2023-07-31T07:24:52;3.63;;;2.10;;
16262;SDS011;8239;48.594;8.598;2023-07-31T07:27:19;4.68;;;2.25;;
16262;SDS011;8239;48.594;8.598;2023-07-31T07:29:46;3.45;;;1.83;;
16262;SDS011;8239;48.594;8.598;2023-07-31T07:32:13;3.00;;;1.95;;
16262;SDS011;8239;48.594;8.598;2023-07-31T07:34:40;3.15;;;2.00;;
16262;SDS011;8239;48.594;8.598;2023-07-31T07:37:07;3.75;;;2.15;;
16262;SDS011;8239;48.594;8.598;2023-07-31T07:39:34;3.97;;;2.10;;
16262;SDS011;8239;48.594;8.598;2023-07-31T07:42:02;4.13;;;1.92;;
16262;SDS011;8239;48.594;8.598;2023-07-31T07:44:30;3.45;;;2.13;;
16262;SDS011;8239;48.594;8.598;2023-07-31T07:46:57;2.83;;;1.70;;
16262;SDS011;8239;48.594;8.598;2023-07-31T07:49:24;3.63;;;1.73;;
16262;SDS011;8239;48.594;8.598;2023-07-31T07:51:51;4.63;;;2.05;;
16262;SDS011;8239;48.594;8.598;2023-07-31T07:54:17;4.07;;;1.80;;
16262;SDS011;8239;48.594;8.598;2023-07-31T07:56:46;3.05;;;1.85;;
16262;SDS011;8239;48.594;8.598;2023-07-31T07:59:14;2.45;;;1.88;;
16262;SDS011;8239;48.594;8.598;2023-07-31T08:01:41;2.55;;;1.80;;
16262;SDS011;8239;48.594;8.598;2023-07-31T08:04:08;3.47;;;1.90;;
16262;SDS011;8239;48.594;8.598;2023-07-31T08:06:35;6.05;;;2.17;;
16262;SDS011;8239;48.594;8.598;2023-07-31T08:09:02;2.13;;;1.70;;
16262;SDS011;8239;48.594;8.598;2023-07-31T08:11:31;2.13;;;1.73;;
16262;SDS011;8239;48.594;8.598;2023-07-31T08:13:58;3.28;;;1.92;;
16262;SDS011;8239;48.594;8.598;2023-07-31T08:16:26;4.20;;;1.90;;
16262;SDS011;8239;48.594;8.598;2023-07-31T08:18:53;2.63;;;1.90;;
16262;SDS011;8239;48.594;8.598;2023-07-31T08:21:21;4.32;;;2.00;;
16262;SDS011;8239;48.594;8.598;2023-07-31T08:23:48;3.90;;;2.17;;
16262;SDS011;8239;48.594;8.598;2023-07-31T08:26:15;5.65;;;2.05;;
16262;SDS011;8239;48.594;8.598;2023-07-31T08:28:42;3.28;;;1.83;;
16262;SDS011;8239;48.594;8.598;2023-07-31T08:31:09;3.03;;;1.77;;
16262;SDS011;8239;48.594;8.598;2023-07-31T08:33:38;3.45;;;2.13;;
16262;SDS011;8239;48.594;8.598;2023-07-31T08:36:05;3.65;;;1.95;;
16262;SDS011;8239;48.594;8.598;2023-07-31T08:38:32;4.43;;;2.20;;
16262;SDS011;8239;48.594;8.598;2023-07-31T08:40:59;3.58;;;2.15;;
16262;SDS011;8239;48.594;8.598;2023-07-31T08:43:27;4.32;;;2.38;;
16262;SDS011;8239;48.594;8.598;2023-07-31T08:45:54;3.85;;;1.92;;
16262;SDS011;8239;48.594;8.598;2023-07-31T08:48:21;4.38;;;2.28;;
16262;SDS011;8239;48.594;8.598;2023-07-31T08:50:51;3.45;;;2.08;;
16262;SDS011;8239;48.594;8.598;2023-07-31T08:53:18;4.53;;;2.20;;
16262;SDS011;8239;48.594;8.598;2023-07-31T08:55:46;2.53;;;1.88;;
16262;SDS011;8239;48.594;8.598;2023-07-31T08:58:14;3.17;;;1.85;;
16262;SDS011;8239;48.594;8.598;2023-07-31T09:00:43;3.90;;;2.08;;
16262;SDS011;8239;48.594;8.598;2023-07-31T09:03:13;4.43;;;2.38;;
16262;SDS011;8239;48.594;8.598;2023-07-31T09:05:42;3.55;;;2.00;;
16262;SDS011;8239;48.594;8.598;2023-07-31T09:08:12;3.80;;;2.03;;
16262;SDS011;8239;48.594;8.598;2023-07-31T09:10:41;2.92;;;2.10;;
16262;SDS011;8239;48.594;8.598;2023-07-31T09:13:10;3.58;;;2.00;;
16262;SDS011;8239;48.594;8.598;2023-07-31T09:15:38;5.00;;;2.10;;
16262;SDS011;8239;48.594;8.598;2023-07-31T09:18:07;2.97;;;1.95;;
16262;SDS011;8239;48.594;8.598;2023-07-31T09:20:35;3.15;;;2.00;;
16262;SDS011;8239;48.594;8.598;2023-07-31T09:23:06;3.22;;;2.13;;
16262;SDS011;8239;48.594;8.598;2023-07-31T09:25:36;3.80;;;2.22;;
16262;SDS011;8239;48.594;8.598;2023-07-31T09:28:05;3.50;;;2.13;;
16262;SDS011;8239;48.594;8.598;2023-07-31T09:30:43;3.67;;;2.13;;
16262;SDS011;8239;48.594;8.598;2023-07-31T09:33:13;2.78;;;2.05;;
16262;SDS011;8239;48.594;8.598;2023-07-31T09:35:40;3.88;;;2.22;;
16262;SDS011;8239;48.594;8.598;2023-07-31T09:38:08;3.55;;;2.13;;
16262;SDS011;8239;48.594;8.598;2023-07-31T09:40:38;3.72;;;2.33;;
16262;SDS011;8239;48.594;8.598;2023-07-31T09:43:06;2.47;;;1.90;;
16262;SDS011;8239;48.594;8.598;2023-07-31T09:45:35;4.78;;;2.50;;
16262;SDS011;8239;48.594;8.598;2023-07-31T09:48:04;2.75;;;2.03;;
16262;SDS011;8239;48.594;8.598;2023-07-31T09:50:34;3.63;;;2.25;;
16262;SDS011;8239;48.594;8.598;2023-07-31T09:53:03;2.58;;;1.90;;
16262;SDS011;8239;48.594;8.598;2023-07-31T09:55:31;2.80;;;2.05;;
16262;SDS011;8239;48.594;8.598;2023-07-31T09:58:00;3.60;;;2.17;;
16262;SDS011;8239;48.594;8.598;2023-07-31T10:00:30;3.10;;;2.10;;
16262;SDS011;8239;48.594;8.598;2023-07-31T10:02:58;2.85;;;1.90;;
16262;SDS011;8239;48.594;8.598;2023-07-31T10:05:28;2.72;;;1.95;;
16262;SDS011;8239;48.594;8.598;2023-07-31T10:07:58;2.80;;;2.08;;
16262;SDS011;8239;48.594;8.598;2023-07-31T10:10:25;4.35;;;2.40;;
16262;SDS011;8239;48.594;8.598;2023-07-31T10:12:53;3.25;;;2.20;;
16262;SDS011;8239;48.594;8.598;2023-07-31T10:15:23;6.15;;;2.55;;
16262;SDS011;8239;48.594;8.598;2023-07-31T10:17:51;3.83;;;2.22;;
16262;SDS011;8239;48.594;8.598;2023-07-31T10:20:19;4.35;;;2.30;;
16262;SDS011;8239;48.594;8.598;2023-07-31T10:22:47;6.00;;;2.35;;
16262;SDS011;8239;48.594;8.598;2023-07-31T10:25:15;3.58;;;2.45;;
16262;SDS011;8239;48.594;8.598;2023-07-31T10:27:42;5.18;;;2.50;;
16262;SDS011;8239;48.594;8.598;2023-07-31T10:30:10;4.70;;;2.15;;
16262;SDS011;8239;48.594;8.598;2023-07-31T10:32:40;3.58;;;2.30;;
16262;SDS011;8239;48.594;8.598;2023-07-31T10:35:09;4.03;;;2.50;;
16262;SDS011;8239;48.594;8.598;2023-07-31T10:37:37;2.53;;;2.05;;
16262;SDS011;8239;48.594;8.598;2023-07-31T10:40:09;3.70;;;2.40;;
16262;SDS011;8239;48.594;8.598;2023-07-31T10:42:38;4.40;;;2.30;;
16262;SDS011;8239;48.594;8.598;2023-07-31T10:45:13;4.47;;;2.30;;
16262;SDS011;8239;48.594;8.598;2023-07-31T10:47:51;2.97;;;2.10;;
16262;SDS011;8239;48.594;8.598;2023-07-31T10:50:25;4.13;;;2.33;;
16262;SDS011;8239;48.594;8.598;2023-07-31T10:52:53;4.10;;;2.53;;
16262;SDS011;8239;48.594;8.598;2023-07-31T10:55:25;3.78;;;2.50;;
16262;SDS011;8239;48.594;8.598;2023-07-31T10:57:54;4.65;;;2.33;;
16262;SDS011;8239;48.594;8.598;2023-07-31T11:00:22;3.85;;;2.25;;
16262;SDS011;8239;48.594;8.598;2023-07-31T11:03:00;2.63;;;2.00;;
16262;SDS011;8239;48.594;8.598;2023-07-31T11:05:44;5.25;;;2.15;;
16262;SDS011;8239;48.594;8.598;2023-07-31T11:08:17;5.60;;;2.28;;
16262;SDS011;8239;48.594;8.598;2023-07-31T11:10:46;4.32;;;2.60;;
16262;SDS011;8239;48.594;8.598;2023-07-31T11:13:14;3.85;;;2.35;;
16262;SDS011;8239;48.594;8.598;2023-07-31T11:15:41;4.15;;;2.25;;
16262;SDS011;8239;48.594;8.598;2023-07-31T11:18:09;3.00;;;2.13;;
16262;SDS011;8239;48.594;8.598;2023-07-31T11:20:37;3.00;;;2.35;;
16262;SDS011;8239;48.594;8.598;2023-07-31T11:23:08;3.53;;;2.13;;
16262;SDS011;8239;48.594;8.598;2023-07-31T11:25:36;6.53;;;2.50;;
16262;SDS011;8239;48.594;8.598;2023-07-31T11:28:05;3.80;;;2.30;;
16262;SDS011;8239;48.594;8.598;2023-07-31T11:30:33;3.33;;;2.40;;
16262;SDS011;8239;48.594;8.598;2023-07-31T11:33:01;3.75;;;2.40;;
16262;SDS011;8239;48.594;8.598;2023-07-31T11:35:31;4.40;;;2.33;;
16262;SDS011;8239;48.594;8.598;2023-07-31T11:37:59;4.63;;;2.40;;
16262;SDS011;8239;48.594;8.598;2023-07-31T11:40:26;3.25;;;2.45;;
16262;SDS011;8239;48.594;8.598;2023-07-31T11:42:55;2.72;;;2.20;;
16262;SDS011;8239;48.594;8.598;2023-07-31T11:45:24;3.88;;;2.22;;
16262;SDS011;8239;48.594;8.598;2023-07-31T11:47:53;4.32;;;2.65;;
16262;SDS011;8239;48.594;8.598;2023-07-31T11:50:22;2.67;;;2.15;;
16262;SDS011;8239;48.594;8.598;2023-07-31T11:52:52;4.20;;;2.30;;
16262;SDS011;8239;48.594;8.598;2023-07-31T11:55:23;2.95;;;2.15;;
16262;SDS011;8239;48.594;8.598;2023-07-31T11:57:51;3.83;;;2.10;;
16262;SDS011;8239;48.594;8.598;2023-07-31T12:00:20;4.47;;;2.55;;
16262;SDS011;8239;48.594;8.598;2023-07-31T12:02:48;4.90;;;2.40;;
16262;SDS011;8239;48.594;8.598;2023-07-31T12:05:16;4.57;;;2.28;;
16262;SDS011;8239;48.594;8.598;2023-07-31T12:07:47;4.35;;;2.30;;
16262;SDS011;8239;48.594;8.598;2023-07-31T12:10:24;3.10;;;2.00;;
16262;SDS011;8239;48.594;8.598;2023-07-31T12:13:04;4.45;;;2.20;;
16262;SDS011;8239;48.594;8.598;2023-07-31T12:15:36;3.63;;;2.20;;
16262;SDS011;8239;48.594;8.598;2023-07-31T12:18:05;4.13;;;2.20;;
16262;SDS011;8239;48.594;8.598;2023-07-31T12:20:34;3.55;;;2.30;;
16262;SDS011;8239;48.594;8.598;2023-07-31T12:23:01;5.00;;;2.25;;
16262;SDS011;8239;48.594;8.598;2023-07-31T12:25:31;3.70;;;2.17;;
16262;SDS011;8239;48.594;8.598;2023-07-31T12:28:03;2.72;;;2.17;;
16262;SDS011;8239;48.594;8.598;2023-07-31T12:30:32;3.88;;;2.25;;
16262;SDS011;8239;48.594;8.598;2023-07-31T12:33:04;2.97;;;2.10;;
16262;SDS011;8239;48.594;8.598;2023-07-31T12:35:35;3.38;;;2.05;;
16262;SDS011;8239;48.594;8.598;2023-07-31T12:38:03;2.70;;;2.03;;
16262;SDS011;8239;48.594;8.598;2023-07-31T12:40:32;2.53;;;2.08;;
16262;SDS011;8239;48.594;8.598;2023-07-31T12:43:00;2.92;;;2.00;;
16262;SDS011;8239;48.594;8.598;2023-07-31T12:45:28;2.40;;;2.13;;
16262;SDS011;8239;48.594;8.598;2023-07-31T12:47:56;3.17;;;2.20;;
16262;SDS011;8239;48.594;8.598;2023-07-31T12:50:23;3.30;;;2.22;;
16262;SDS011;8239;48.594;8.598;2023-07-31T12:52:50;4.22;;;2.30;;
16262;SDS011;8239;48.594;8.598;2023-07-31T12:55:17;2.35;;;1.98;;
16262;SDS011;8239;48.594;8.598;2023-07-31T12:57:46;3.90;;;2.50;;
16262;SDS011;8239;48.594;8.598;2023-07-31T13:00:13;3.10;;;2.20;;
16262;SDS011;8239;48.594;8.598;2023-07-31T13:02:40;2.88;;;2.25;;
16262;SDS011;8239;48.594;8.598;2023-07-31T13:05:07;2.45;;;2.17;;
16262;SDS011;8239;48.594;8.598;2023-07-31T13:07:35;3.97;;;2.25;;
16262;SDS011;8239;48.594;8.598;2023-07-31T13:10:02;3.92;;;2.30;;
16262;SDS011;8239;48.594;8.598;2023-07-31T13:12:29;3.42;;;2.20;;
16262;SDS011;8239;48.594;8.598;2023-07-31T13:14:57;2.67;;;1.90;;
16262;SDS011;8239;48.594;8.598;2023-07-31T13:17:24;2.75;;;2.28;;
16262;SDS011;8239;48.594;8.598;2023-07-31T13:19:52;3.38;;;2.50;;
16262;SDS011;8239;48.594;8.598;2023-07-31T13:22:19;2.40;;;2.20;;
16262;SDS011;8239;48.594;8.598;2023-07-31T13:24:46;2.60;;;2.38;;
16262;SDS011;8239;48.594;8.598;2023-07-31T13:27:13;3.45;;;2.83;;
16262;SDS011;8239;48.594;8.598;2023-07-31T13:29:41;3.75;;;2.45;;
16262;SDS011;8239;48.594;8.598;2023-07-31T13:32:10;3.25;;;2.50;;
16262;SDS011;8239;48.594;8.598;2023-07-31T13:34:37;2.90;;;2.60;;
16262;SDS011;8239;48.594;8.598;2023-07-31T13:37:05;4.30;;;2.20;;
16262;SDS011;8239;48.594;8.598;2023-07-31T13:39:32;3.28;;;2.50;;
16262;SDS011;8239;48.594;8.598;2023-07-31T13:41:59;3.45;;;2.35;;
16262;SDS011;8239;48.594;8.598;2023-07-31T13:44:26;2.67;;;2.08;;
16262;SDS011;8239;48.594;8.598;2023-07-31T13:46:53;3.65;;;2.20;;
16262;SDS011;8239;48.594;8.598;2023-07-31T13:49:22;2.75;;;2.28;;
16262;SDS011;8239;48.594;8.598;2023-07-31T13:51:49;3.47;;;2.40;;
16262;SDS011;8239;48.594;8.598;2023-07-31T13:54:16;3.25;;;2.35;;
16262;SDS011;8239;48.594;8.598;2023-07-31T13:56:43;3.33;;;2.38;;
16262;SDS011;8239;48.594;8.598;2023-07-31T13:59:10;3.03;;;2.17;;
16262;SDS011;8239;48.594;8.598;2023-07-31T14:01:38;3.30;;;2.30;;
16262;SDS011;8239;48.594;8.598;2023-07-31T14:04:05;3.50;;;2.47;;
16262;SDS011;8239;48.594;8.598;2023-07-31T14:06:34;2.92;;;2.20;;
16262;SDS011;8239;48.594;8.598;2023-07-31T14:09:01;3.33;;;2.20;;
16262;SDS011;8239;48.594;8.598;2023-07-31T14:11:29;6.03;;;2.30;;
16262;SDS011;8239;48.594;8.598;2023-07-31T14:13:57;3.10;;;2.40;;
16262;SDS011;8239;48.594;8.598;2023-07-31T14:16:24;3.70;;;2.40;;
16262;SDS011;8239;48.594;8.598;2023-07-31T14:18:51;4.00;;;2.42;;
16262;SDS011;8239;48.594;8.598;2023-07-31T14:21:18;3.90;;;2.50;;
16262;SDS011;8239;48.594;8.598;2023-07-31T14:23:47;3.42;;;2.28;;
16262;SDS011;8239;48.594;8.598;2023-07-31T14:26:13;3.53;;;2.20;;
16262;SDS011;8239;48.594;8.598;2023-07-31T14:28:41;3.53;;;2.33;;
16262;SDS011;8239;48.594;8.598;2023-07-31T14:31:08;2.95;;;2.30;;
16262;SDS011;8239;48.594;8.598;2023-07-31T14:33:35;3.22;;;2.10;;
16262;SDS011;8239;48.594;8.598;2023-07-31T14:36:02;3.10;;;1.92;;
16262;SDS011;8239;48.594;8.598;2023-07-31T14:38:29;3.17;;;2.40;;
16262;SDS011;8239;48.594;8.598;2023-07-31T14:40:58;3.63;;;2.22;;
16262;SDS011;8239;48.594;8.598;2023-07-31T14:43:25;3.55;;;2.60;;
16262;SDS011;8239;48.594;8.598;2023-07-31T14:45:51;3.05;;;2.45;;
16262;SDS011;8239;48.594;8.598;2023-07-31T14:48:21;2.70;;;2.30;;
16262;SDS011;8239;48.594;8.598;2023-07-31T14:50:48;3.85;;;2.20;;
16262;SDS011;8239;48.594;8.598;2023-07-31T14:53:14;3.55;;;2.13;;
16262;SDS011;8239;48.594;8.598;2023-07-31T14:55:41;3.25;;;2.38;;
16262;SDS011;8239;48.594;8.598;2023-07-31T14:58:10;3.92;;;2.17;;
16262;SDS011;8239;48.594;8.598;2023-07-31T15:00:38;3.63;;;2.40;;
16262;SDS011;8239;48.594;8.598;2023-07-31T15:03:05;2.97;;;2.20;;
16262;SDS011;8239;48.594;8.598;2023-07-31T15:05:32;2.40;;;1.92;;
16262;SDS011;8239;48.594;8.598;2023-07-31T15:07:59;3.55;;;2.30;;